sensor_id;sensor_type;location;lat;lon;timestamp;temperature;humidity
50969;DHT22;36982;51.474;7.228;2024-02-21T00:00:17;8.90;94.00
50969;DHT22;36982;51.474;7.228;2024-02-21T00:02:43;9.00;94.00
50969;DHT22;36982;51.474;7.228;2024-02-21T00:05:08;9.10;94.00
50969;DHT22;36982;51.474;7.228;2024-02-21T00:07:34;9.10;93.60
50969;DHT22;36982;51.474;7.228;2024-02-21T00:09:59;9.00;94.70
50969;DHT22;36982;51.474;7.228;2024-02-21T00:12:26;9.00;95.20
50969;DHT22;36982;51.474;7.228;2024-02-21T00:14:51;8.90;95.40
50969;DHT22;36982;51.474;7.228;2024-02-21T00:17:17;9.00;95.70
50969;DHT22;36982;51.474;7.228;2024-02-21T00:19:42;9.10;96.00
50969;DHT22;36982;51.474;7.228;2024-02-21T00:22:08;9.00;96.00
50969;DHT22;36982;51.474;7.228;2024-02-21T00:24:33;8.90;96.20
50969;DHT22;36982;51.474;7.228;2024-02-21T00:26:59;9.00;96.60
50969;DHT22;36982;51.474;7.228;2024-02-21T00:29:25;9.00;96.50
50969;DHT22;36982;51.474;7.228;2024-02-21T00:31:51;9.00;96.70
50969;DHT22;36982;51.474;7.228;2024-02-21T00:34:16;8.90;96.70
50969;DHT22;36982;51.474;7.228;2024-02-21T00:36:42;8.90;97.00
50969;DHT22;36982;51.474;7.228;2024-02-21T00:39:07;8.80;96.90
50969;DHT22;36982;51.474;7.228;2024-02-21T00:41:33;8.80;97.60
50969;DHT22;36982;51.474;7.228;2024-02-21T00:43:59;8.90;97.50
50969;DHT22;36982;51.474;7.228;2024-02-21T00:46:24;8.80;97.50
50969;DHT22;36982;51.474;7.228;2024-02-21T00:48:50;8.80;97.50
50969;DHT22;36982;51.474;7.228;2024-02-21T00:51:16;8.70;97.70
50969;DHT22;36982;51.474;7.228;2024-02-21T00:53:42;8.80;97.60
50969;DHT22;36982;51.474;7.228;2024-02-21T00:56:08;8.80;97.60
50969;DHT22;36982;51.474;7.228;2024-02-21T00:58:33;8.90;97.80
50969;DHT22;36982;51.474;7.228;2024-02-21T01:01:00;8.90;97.10
50969;DHT22;36982;51.474;7.228;2024-02-21T01:03:26;8.90;96.70
50969;DHT22;36982;51.474;7.228;2024-02-21T01:05:51;9.00;96.30
50969;DHT22;36982;51.474;7.228;2024-02-21T01:08:17;8.90;96.40
50969;DHT22;36982;51.474;7.228;2024-02-21T01:10:43;9.00;97.00
50969;DHT22;36982;51.474;7.228;2024-02-21T01:13:08;8.90;96.80
50969;DHT22;36982;51.474;7.228;2024-02-21T01:15:34;8.90;96.90
50969;DHT22;36982;51.474;7.228;2024-02-21T01:18:01;8.90;97.00
50969;DHT22;36982;51.474;7.228;2024-02-21T01:20:26;8.90;96.60
50969;DHT22;36982;51.474;7.228;2024-02-21T01:22:52;8.90;97.30
50969;DHT22;36982;51.474;7.228;2024-02-21T01:25:17;8.80;97.50
50969;DHT22;36982;51.474;7.228;2024-02-21T01:27:43;8.80;97.70
50969;DHT22;36982;51.474;7.228;2024-02-21T01:30:09;8.60;97.90
50969;DHT22;36982;51.474;7.228;2024-02-21T01:32:36;8.80;98.00
50969;DHT22;36982;51.474;7.228;2024-02-21T01:35:01;8.90;97.90
50969;DHT22;36982;51.474;7.228;2024-02-21T01:37:27;8.90;97.30
50969;DHT22;36982;51.474;7.228;2024-02-21T01:39:53;8.90;97.30
50969;DHT22;36982;51.474;7.228;2024-02-21T01:42:19;8.90;97.50
50969;DHT22;36982;51.474;7.228;2024-02-21T01:44:44;8.90;97.20
50969;DHT22;36982;51.474;7.228;2024-02-21T01:47:11;8.80;97.20
50969;DHT22;36982;51.474;7.228;2024-02-21T01:49:40;8.70;97.40
50969;DHT22;36982;51.474;7.228;2024-02-21T01:52:05;8.80;97.50
50969;DHT22;36982;51.474;7.228;2024-02-21T01:54:32;8.80;97.30
50969;DHT22;36982;51.474;7.228;2024-02-21T01:56:58;8.80;97.40
50969;DHT22;36982;51.474;7.228;2024-02-21T01:59:24;8.80;97.80
50969;DHT22;36982;51.474;7.228;2024-02-21T02:01:51;8.70;98.00
50969;DHT22;36982;51.474;7.228;2024-02-21T02:04:17;8.80;98.20
50969;DHT22;36982;51.474;7.228;2024-02-21T02:06:42;8.70;97.70
50969;DHT22;36982;51.474;7.228;2024-02-21T02:09:31;8.70;98.10
50969;DHT22;36982;51.474;7.228;2024-02-21T02:11:57;8.70;97.90
50969;DHT22;36982;51.474;7.228;2024-02-21T02:14:23;8.80;97.80
50969;DHT22;36982;51.474;7.228;2024-02-21T02:16:49;8.80;97.40
50969;DHT22;36982;51.474;7.228;2024-02-21T02:19:15;8.80;97.90
50969;DHT22;36982;51.474;7.228;2024-02-21T02:21:46;8.90;97.60
50969;DHT22;36982;51.474;7.228;2024-02-21T02:24:12;8.90;97.50
50969;DHT22;36982;51.474;7.228;2024-02-21T02:26:39;8.90;96.60
50969;DHT22;36982;51.474;7.228;2024-02-21T02:29:05;8.90;96.60
50969;DHT22;36982;51.474;7.228;2024-02-21T02:31:30;8.90;96.90
50969;DHT22;36982;51.474;7.228;2024-02-21T02:33:56;8.90;96.90
50969;DHT22;36982;51.474;7.228;2024-02-21T02:36:22;8.90;97.20
50969;DHT22;36982;51.474;7.228;2024-02-21T02:38:47;8.90;97.30
50969;DHT22;36982;51.474;7.228;2024-02-21T02:41:13;8.90;97.20
50969;DHT22;36982;51.474;7.228;2024-02-21T02:43:38;8.80;97.10
50969;DHT22;36982;51.474;7.228;2024-02-21T02:46:04;8.90;97.60
50969;DHT22;36982;51.474;7.228;2024-02-21T02:48:29;8.80;97.50
50969;DHT22;36982;51.474;7.228;2024-02-21T02:50:55;8.80;97.70
50969;DHT22;36982;51.474;7.228;2024-02-21T02:53:21;8.70;98.00
50969;DHT22;36982;51.474;7.228;2024-02-21T02:55:46;8.70;98.70
50969;DHT22;36982;51.474;7.228;2024-02-21T02:58:12;8.60;98.70
50969;DHT22;36982;51.474;7.228;2024-02-21T03:00:37;8.60;99.00
50969;DHT22;36982;51.474;7.228;2024-02-21T03:03:04;8.60;99.10
50969;DHT22;36982;51.474;7.228;2024-02-21T03:05:30;8.50;99.30
50969;DHT22;36982;51.474;7.228;2024-02-21T03:07:56;8.50;99.50
50969;DHT22;36982;51.474;7.228;2024-02-21T03:10:21;8.60;99.40
50969;DHT22;36982;51.474;7.228;2024-02-21T03:12:47;8.70;99.30
50969;DHT22;36982;51.474;7.228;2024-02-21T03:15:13;8.80;99.20
50969;DHT22;36982;51.474;7.228;2024-02-21T03:17:40;8.60;99.20
50969;DHT22;36982;51.474;7.228;2024-02-21T03:20:06;8.70;98.80
50969;DHT22;36982;51.474;7.228;2024-02-21T03:22:35;8.70;98.80
50969;DHT22;36982;51.474;7.228;2024-02-21T03:25:01;8.70;98.70
50969;DHT22;36982;51.474;7.228;2024-02-21T03:27:27;8.70;98.90
50969;DHT22;36982;51.474;7.228;2024-02-21T03:29:52;8.70;98.70
50969;DHT22;36982;51.474;7.228;2024-02-21T03:32:18;8.70;98.50
50969;DHT22;36982;51.474;7.228;2024-02-21T03:34:43;8.70;98.70
50969;DHT22;36982;51.474;7.228;2024-02-21T03:37:09;8.60;98.50
50969;DHT22;36982;51.474;7.228;2024-02-21T03:39:35;8.80;99.00
50969;DHT22;36982;51.474;7.228;2024-02-21T03:42:01;8.70;98.50
50969;DHT22;36982;51.474;7.228;2024-02-21T03:44:30;8.70;97.80
50969;DHT22;36982;51.474;7.228;2024-02-21T03:46:56;8.70;98.00
50969;DHT22;36982;51.474;7.228;2024-02-21T03:49:22;8.70;97.90
50969;DHT22;36982;51.474;7.228;2024-02-21T03:51:47;8.70;97.80
50969;DHT22;36982;51.474;7.228;2024-02-21T03:54:13;8.90;97.80
50969;DHT22;36982;51.474;7.228;2024-02-21T03:56:39;8.80;97.00
50969;DHT22;36982;51.474;7.228;2024-02-21T03:59:06;8.80;97.20
50969;DHT22;36982;51.474;7.228;2024-02-21T04:01:31;8.80;96.50
50969;DHT22;36982;51.474;7.228;2024-02-21T04:03:57;8.80;96.70
50969;DHT22;36982;51.474;7.228;2024-02-21T04:06:23;8.80;96.30
50969;DHT22;36982;51.474;7.228;2024-02-21T04:08:48;8.80;96.00
50969;DHT22;36982;51.474;7.228;2024-02-21T04:11:14;8.80;96.20
50969;DHT22;36982;51.474;7.228;2024-02-21T04:13:39;8.80;96.30
50969;DHT22;36982;51.474;7.228;2024-02-21T04:16:05;8.80;96.10
50969;DHT22;36982;51.474;7.228;2024-02-21T04:18:31;8.80;95.90
50969;DHT22;36982;51.474;7.228;2024-02-21T04:20:57;8.80;96.10
50969;DHT22;36982;51.474;7.228;2024-02-21T04:23:22;8.80;96.50
50969;DHT22;36982;51.474;7.228;2024-02-21T04:25:48;8.80;96.90
50969;DHT22;36982;51.474;7.228;2024-02-21T04:28:13;8.70;96.80
50969;DHT22;36982;51.474;7.228;2024-02-21T04:30:39;8.80;97.30
50969;DHT22;36982;51.474;7.228;2024-02-21T04:33:04;8.90;96.10
50969;DHT22;36982;51.474;7.228;2024-02-21T04:35:30;8.90;96.00
50969;DHT22;36982;51.474;7.228;2024-02-21T04:37:55;8.80;95.70
50969;DHT22;36982;51.474;7.228;2024-02-21T04:40:21;8.80;96.40
50969;DHT22;36982;51.474;7.228;2024-02-21T04:42:46;8.80;96.80
50969;DHT22;36982;51.474;7.228;2024-02-21T04:45:12;8.80;95.80
50969;DHT22;36982;51.474;7.228;2024-02-21T04:47:38;8.80;95.50
50969;DHT22;36982;51.474;7.228;2024-02-21T04:50:04;8.80;95.20
50969;DHT22;36982;51.474;7.228;2024-02-21T04:52:29;8.80;95.20
50969;DHT22;36982;51.474;7.228;2024-02-21T04:54:55;8.70;95.70
50969;DHT22;36982;51.474;7.228;2024-02-21T04:57:21;8.70;95.30
50969;DHT22;36982;51.474;7.228;2024-02-21T04:59:46;8.70;94.90
50969;DHT22;36982;51.474;7.228;2024-02-21T05:02:15;8.80;94.90
50969;DHT22;36982;51.474;7.228;2024-02-21T05:04:41;8.70;95.00
50969;DHT22;36982;51.474;7.228;2024-02-21T05:07:07;8.70;95.10
50969;DHT22;36982;51.474;7.228;2024-02-21T05:09:33;8.60;95.40
50969;DHT22;36982;51.474;7.228;2024-02-21T05:11:59;8.70;95.50
50969;DHT22;36982;51.474;7.228;2024-02-21T05:14:28;8.70;94.70
50969;DHT22;36982;51.474;7.228;2024-02-21T05:16:54;8.80;95.30
50969;DHT22;36982;51.474;7.228;2024-02-21T05:19:19;8.80;94.50
50969;DHT22;36982;51.474;7.228;2024-02-21T05:21:45;8.80;94.30
50969;DHT22;36982;51.474;7.228;2024-02-21T05:24:11;8.90;94.60
50969;DHT22;36982;51.474;7.228;2024-02-21T05:26:36;8.90;94.40
50969;DHT22;36982;51.474;7.228;2024-02-21T05:29:02;8.90;93.10
50969;DHT22;36982;51.474;7.228;2024-02-21T05:31:54;8.80;92.80
50969;DHT22;36982;51.474;7.228;2024-02-21T05:34:20;8.80;93.00
50969;DHT22;36982;51.474;7.228;2024-02-21T05:36:46;8.80;92.50
50969;DHT22;36982;51.474;7.228;2024-02-21T05:39:13;8.80;92.30
50969;DHT22;36982;51.474;7.228;2024-02-21T05:41:38;8.80;92.10
50969;DHT22;36982;51.474;7.228;2024-02-21T05:44:04;8.80;92.10
50969;DHT22;36982;51.474;7.228;2024-02-21T05:46:29;8.80;91.50
50969;DHT22;36982;51.474;7.228;2024-02-21T05:48:55;8.80;90.80
50969;DHT22;36982;51.474;7.228;2024-02-21T05:51:20;8.70;91.20
50969;DHT22;36982;51.474;7.228;2024-02-21T05:53:46;8.70;91.50
50969;DHT22;36982;51.474;7.228;2024-02-21T05:56:13;8.80;90.50
50969;DHT22;36982;51.474;7.228;2024-02-21T05:58:39;8.70;90.30
50969;DHT22;36982;51.474;7.228;2024-02-21T06:01:05;8.80;90.30
50969;DHT22;36982;51.474;7.228;2024-02-21T06:03:32;8.80;90.60
50969;DHT22;36982;51.474;7.228;2024-02-21T06:05:59;8.80;90.50
50969;DHT22;36982;51.474;7.228;2024-02-21T06:08:24;8.70;90.20
50969;DHT22;36982;51.474;7.228;2024-02-21T06:10:50;8.80;89.90
50969;DHT22;36982;51.474;7.228;2024-02-21T06:13:20;8.80;87.80
50969;DHT22;36982;51.474;7.228;2024-02-21T06:15:47;8.80;87.70
50969;DHT22;36982;51.474;7.228;2024-02-21T06:18:12;8.90;87.00
50969;DHT22;36982;51.474;7.228;2024-02-21T06:20:38;8.90;86.40
50969;DHT22;36982;51.474;7.228;2024-02-21T06:23:06;8.90;86.20
50969;DHT22;36982;51.474;7.228;2024-02-21T06:25:32;8.90;84.70
50969;DHT22;36982;51.474;7.228;2024-02-21T06:27:57;8.90;86.30
50969;DHT22;36982;51.474;7.228;2024-02-21T06:30:23;8.90;85.80
50969;DHT22;36982;51.474;7.228;2024-02-21T06:32:48;8.90;86.80
50969;DHT22;36982;51.474;7.228;2024-02-21T06:35:14;9.00;84.70
50969;DHT22;36982;51.474;7.228;2024-02-21T06:37:39;8.90;85.60
50969;DHT22;36982;51.474;7.228;2024-02-21T06:40:05;9.00;83.40
50969;DHT22;36982;51.474;7.228;2024-02-21T06:42:31;8.90;85.10
50969;DHT22;36982;51.474;7.228;2024-02-21T06:44:57;8.90;85.50
50969;DHT22;36982;51.474;7.228;2024-02-21T06:47:22;8.90;85.00
50969;DHT22;36982;51.474;7.228;2024-02-21T06:49:49;8.90;86.30
50969;DHT22;36982;51.474;7.228;2024-02-21T06:52:17;8.80;87.00
50969;DHT22;36982;51.474;7.228;2024-02-21T06:54:43;8.80;88.40
50969;DHT22;36982;51.474;7.228;2024-02-21T06:57:08;8.80;86.70
50969;DHT22;36982;51.474;7.228;2024-02-21T06:59:34;8.80;85.50
50969;DHT22;36982;51.474;7.228;2024-02-21T07:01:59;8.80;86.80
50969;DHT22;36982;51.474;7.228;2024-02-21T07:04:26;8.90;87.50
50969;DHT22;36982;51.474;7.228;2024-02-21T07:06:52;8.80;87.50
50969;DHT22;36982;51.474;7.228;2024-02-21T07:09:18;8.80;86.50
50969;DHT22;36982;51.474;7.228;2024-02-21T07:11:43;8.80;85.60
50969;DHT22;36982;51.474;7.228;2024-02-21T07:14:09;8.80;83.70
50969;DHT22;36982;51.474;7.228;2024-02-21T07:16:35;8.80;85.60
50969;DHT22;36982;51.474;7.228;2024-02-21T07:19:00;8.90;83.90
50969;DHT22;36982;51.474;7.228;2024-02-21T07:21:26;8.90;83.00
50969;DHT22;36982;51.474;7.228;2024-02-21T07:23:51;8.90;82.00
50969;DHT22;36982;51.474;7.228;2024-02-21T07:26:17;8.90;83.00
50969;DHT22;36982;51.474;7.228;2024-02-21T07:28:42;8.90;83.60
50969;DHT22;36982;51.474;7.228;2024-02-21T07:31:08;9.00;81.40
50969;DHT22;36982;51.474;7.228;2024-02-21T07:33:33;9.00;79.60
50969;DHT22;36982;51.474;7.228;2024-02-21T07:36:01;9.00;80.00
50969;DHT22;36982;51.474;7.228;2024-02-21T07:38:26;9.00;80.10
50969;DHT22;36982;51.474;7.228;2024-02-21T07:40:52;9.10;77.80
50969;DHT22;36982;51.474;7.228;2024-02-21T07:43:17;9.10;80.00
50969;DHT22;36982;51.474;7.228;2024-02-21T07:45:43;9.30;79.10
50969;DHT22;36982;51.474;7.228;2024-02-21T07:48:08;9.20;79.70
50969;DHT22;36982;51.474;7.228;2024-02-21T07:50:34;9.20;78.90
50969;DHT22;36982;51.474;7.228;2024-02-21T07:53:00;9.30;78.40
50969;DHT22;36982;51.474;7.228;2024-02-21T07:55:25;9.20;79.00
50969;DHT22;36982;51.474;7.228;2024-02-21T07:57:52;9.20;79.60
50969;DHT22;36982;51.474;7.228;2024-02-21T08:00:18;9.20;78.40
50969;DHT22;36982;51.474;7.228;2024-02-21T08:02:48;9.30;78.70
50969;DHT22;36982;51.474;7.228;2024-02-21T08:05:14;9.40;78.80
50969;DHT22;36982;51.474;7.228;2024-02-21T08:07:39;9.30;78.00
50969;DHT22;36982;51.474;7.228;2024-02-21T08:10:05;9.40;76.60
50969;DHT22;36982;51.474;7.228;2024-02-21T08:12:33;9.40;75.80
50969;DHT22;36982;51.474;7.228;2024-02-21T08:15:00;9.40;74.80
50969;DHT22;36982;51.474;7.228;2024-02-21T08:17:26;9.40;73.70
50969;DHT22;36982;51.474;7.228;2024-02-21T08:19:51;9.50;70.60
50969;DHT22;36982;51.474;7.228;2024-02-21T08:22:17;9.60;68.20
50969;DHT22;36982;51.474;7.228;2024-02-21T08:24:42;9.60;70.40
50969;DHT22;36982;51.474;7.228;2024-02-21T08:27:08;9.50;70.00
50969;DHT22;36982;51.474;7.228;2024-02-21T08:29:34;9.60;71.10
50969;DHT22;36982;51.474;7.228;2024-02-21T08:31:59;9.50;69.10
50969;DHT22;36982;51.474;7.228;2024-02-21T08:34:25;9.50;70.40
50969;DHT22;36982;51.474;7.228;2024-02-21T08:36:51;9.60;67.90
50969;DHT22;36982;51.474;7.228;2024-02-21T08:39:16;9.60;68.90
50969;DHT22;36982;51.474;7.228;2024-02-21T08:41:42;9.60;67.90
50969;DHT22;36982;51.474;7.228;2024-02-21T08:44:08;9.50;68.90
50969;DHT22;36982;51.474;7.228;2024-02-21T08:46:33;9.60;69.00
50969;DHT22;36982;51.474;7.228;2024-02-21T08:48:59;9.60;65.50
50969;DHT22;36982;51.474;7.228;2024-02-21T08:51:24;9.60;67.40
50969;DHT22;36982;51.474;7.228;2024-02-21T08:53:50;9.70;66.50
50969;DHT22;36982;51.474;7.228;2024-02-21T08:56:17;9.80;67.70
50969;DHT22;36982;51.474;7.228;2024-02-21T08:58:43;9.70;69.30
50969;DHT22;36982;51.474;7.228;2024-02-21T09:01:09;9.50;71.00
50969;DHT22;36982;51.474;7.228;2024-02-21T09:03:39;9.50;72.60
50969;DHT22;36982;51.474;7.228;2024-02-21T09:06:09;9.50;74.10
50969;DHT22;36982;51.474;7.228;2024-02-21T09:08:35;9.50;75.70
50969;DHT22;36982;51.474;7.228;2024-02-21T09:11:01;9.40;74.40
50969;DHT22;36982;51.474;7.228;2024-02-21T09:13:27;9.40;78.90
50969;DHT22;36982;51.474;7.228;2024-02-21T09:15:52;9.30;77.20
50969;DHT22;36982;51.474;7.228;2024-02-21T09:18:18;9.40;79.70
50969;DHT22;36982;51.474;7.228;2024-02-21T09:20:44;9.40;80.50
50969;DHT22;36982;51.474;7.228;2024-02-21T09:23:10;9.40;79.60
50969;DHT22;36982;51.474;7.228;2024-02-21T09:25:35;9.40;80.90
50969;DHT22;36982;51.474;7.228;2024-02-21T09:28:02;9.40;81.50
50969;DHT22;36982;51.474;7.228;2024-02-21T09:30:28;9.40;83.00
50969;DHT22;36982;51.474;7.228;2024-02-21T09:32:54;9.50;81.10
50969;DHT22;36982;51.474;7.228;2024-02-21T09:35:19;9.60;83.00
50969;DHT22;36982;51.474;7.228;2024-02-21T09:37:47;9.50;85.30
50969;DHT22;36982;51.474;7.228;2024-02-21T09:40:15;9.30;87.10
50969;DHT22;36982;51.474;7.228;2024-02-21T09:42:44;9.20;88.70
50969;DHT22;36982;51.474;7.228;2024-02-21T09:45:20;9.20;88.40
50969;DHT22;36982;51.474;7.228;2024-02-21T09:50:34;9.10;90.10
50969;DHT22;36982;51.474;7.228;2024-02-21T09:53:02;9.10;90.70
50969;DHT22;36982;51.474;7.228;2024-02-21T09:55:31;9.20;90.30
50969;DHT22;36982;51.474;7.228;2024-02-21T09:58:03;9.30;90.90
50969;DHT22;36982;51.474;7.228;2024-02-21T10:00:30;9.20;90.90
50969;DHT22;36982;51.474;7.228;2024-02-21T10:02:55;9.20;91.00
50969;DHT22;36982;51.474;7.228;2024-02-21T10:05:21;9.30;90.20
50969;DHT22;36982;51.474;7.228;2024-02-21T10:07:48;9.20;90.20
50969;DHT22;36982;51.474;7.228;2024-02-21T10:10:14;9.00;91.30
50969;DHT22;36982;51.474;7.228;2024-02-21T10:12:51;9.00;91.70
50969;DHT22;36982;51.474;7.228;2024-02-21T10:15:21;9.10;92.20
50969;DHT22;36982;51.474;7.228;2024-02-21T10:17:48;9.20;92.40
50969;DHT22;36982;51.474;7.228;2024-02-21T10:20:14;9.40;90.90
50969;DHT22;36982;51.474;7.228;2024-02-21T10:22:40;9.50;88.00
50969;DHT22;36982;51.474;7.228;2024-02-21T10:25:10;9.40;86.70
50969;DHT22;36982;51.474;7.228;2024-02-21T10:27:37;9.40;90.00
50969;DHT22;36982;51.474;7.228;2024-02-21T10:30:04;9.40;87.90
50969;DHT22;36982;51.474;7.228;2024-02-21T10:32:29;9.40;88.20
50969;DHT22;36982;51.474;7.228;2024-02-21T10:35:03;9.40;85.60
50969;DHT22;36982;51.474;7.228;2024-02-21T10:37:31;9.60;85.60
50969;DHT22;36982;51.474;7.228;2024-02-21T10:39:57;9.70;80.50
50969;DHT22;36982;51.474;7.228;2024-02-21T10:42:23;9.80;75.10
50969;DHT22;36982;51.474;7.228;2024-02-21T10:44:53;9.90;72.20
50969;DHT22;36982;51.474;7.228;2024-02-21T10:47:22;10.00;65.50
50969;DHT22;36982;51.474;7.228;2024-02-21T10:49:54;10.00;60.40
50969;DHT22;36982;51.474;7.228;2024-02-21T10:52:38;10.00;61.10
50969;DHT22;36982;51.474;7.228;2024-02-21T10:55:15;10.10;53.30
50969;DHT22;36982;51.474;7.228;2024-02-21T10:57:42;10.10;51.70
50969;DHT22;36982;51.474;7.228;2024-02-21T11:00:09;10.20;50.70
50969;DHT22;36982;51.474;7.228;2024-02-21T11:02:38;10.20;50.10
50969;DHT22;36982;51.474;7.228;2024-02-21T11:05:05;10.20;43.40
50969;DHT22;36982;51.474;7.228;2024-02-21T11:07:32;10.20;40.50
50969;DHT22;36982;51.474;7.228;2024-02-21T11:09:58;10.30;46.60
50969;DHT22;36982;51.474;7.228;2024-02-21T11:12:25;10.50;44.00
50969;DHT22;36982;51.474;7.228;2024-02-21T11:14:51;10.50;30.00
50969;DHT22;36982;51.474;7.228;2024-02-21T11:17:18;10.70;23.00
50969;DHT22;36982;51.474;7.228;2024-02-21T11:19:44;10.70;23.30
50969;DHT22;36982;51.474;7.228;2024-02-21T11:22:17;10.80;21.90
50969;DHT22;36982;51.474;7.228;2024-02-21T11:24:43;10.80;21.90
50969;DHT22;36982;51.474;7.228;2024-02-21T11:29:49;10.90;18.10
50969;DHT22;36982;51.474;7.228;2024-02-21T11:32:18;10.90;12.00
50969;DHT22;36982;51.474;7.228;2024-02-21T11:34:59;10.80;22.50
50969;DHT22;36982;51.474;7.228;2024-02-21T11:37:28;11.00;19.40
50969;DHT22;36982;51.474;7.228;2024-02-21T11:39:57;11.00;16.10
50969;DHT22;36982;51.474;7.228;2024-02-21T11:42:25;11.10;13.00
50969;DHT22;36982;51.474;7.228;2024-02-21T11:44:51;11.20;6.60
50969;DHT22;36982;51.474;7.228;2024-02-21T11:47:18;11.20;4.50
50969;DHT22;36982;51.474;7.228;2024-02-21T11:49:47;11.10;2.50
50969;DHT22;36982;51.474;7.228;2024-02-21T11:52:15;11.10;5.10
50969;DHT22;36982;51.474;7.228;2024-02-21T11:54:42;11.20;1.60
50969;DHT22;36982;51.474;7.228;2024-02-21T11:57:07;11.30;1.00
50969;DHT22;36982;51.474;7.228;2024-02-21T11:59:34;11.30;1.00
50969;DHT22;36982;51.474;7.228;2024-02-21T12:02:00;11.30;1.00
50969;DHT22;36982;51.474;7.228;2024-02-21T12:04:26;11.20;1.00
50969;DHT22;36982;51.474;7.228;2024-02-21T12:06:56;11.10;1.00
50969;DHT22;36982;51.474;7.228;2024-02-21T12:09:23;11.20;1.00
50969;DHT22;36982;51.474;7.228;2024-02-21T12:11:57;11.50;1.00
50969;DHT22;36982;51.474;7.228;2024-02-21T12:14:24;11.50;1.00
50969;DHT22;36982;51.474;7.228;2024-02-21T12:16:50;11.50;1.00
50969;DHT22;36982;51.474;7.228;2024-02-21T12:19:16;11.60;1.00
50969;DHT22;36982;51.474;7.228;2024-02-21T12:21:42;11.80;1.00
50969;DHT22;36982;51.474;7.228;2024-02-21T12:24:21;12.00;1.00
50969;DHT22;36982;51.474;7.228;2024-02-21T12:26:47;12.00;1.00
50969;DHT22;36982;51.474;7.228;2024-02-21T12:29:12;11.80;1.00
50969;DHT22;36982;51.474;7.228;2024-02-21T12:31:38;11.70;1.00
50969;DHT22;36982;51.474;7.228;2024-02-21T12:34:04;11.60;1.00
50969;DHT22;36982;51.474;7.228;2024-02-21T12:36:33;11.60;1.00
50969;DHT22;36982;51.474;7.228;2024-02-21T12:38:59;11.60;1.00
50969;DHT22;36982;51.474;7.228;2024-02-21T12:41:27;11.70;1.00
50969;DHT22;36982;51.474;7.228;2024-02-21T12:43:53;11.60;1.00
50969;DHT22;36982;51.474;7.228;2024-02-21T12:46:18;11.70;1.00
50969;DHT22;36982;51.474;7.228;2024-02-21T12:48:44;11.60;1.00
50969;DHT22;36982;51.474;7.228;2024-02-21T12:51:10;11.80;1.00
50969;DHT22;36982;51.474;7.228;2024-02-21T12:53:35;11.80;1.00
50969;DHT22;36982;51.474;7.228;2024-02-21T12:56:01;11.80;1.00
50969;DHT22;36982;51.474;7.228;2024-02-21T12:58:27;11.90;1.00
50969;DHT22;36982;51.474;7.228;2024-02-21T13:00:52;11.90;1.00
50969;DHT22;36982;51.474;7.228;2024-02-21T13:03:18;12.00;1.00
50969;DHT22;36982;51.474;7.228;2024-02-21T13:05:44;12.10;1.00
50969;DHT22;36982;51.474;7.228;2024-02-21T13:08:09;12.20;1.00
50969;DHT22;36982;51.474;7.228;2024-02-21T13:10:35;12.30;1.00
50969;DHT22;36982;51.474;7.228;2024-02-21T13:13:01;12.20;1.00
50969;DHT22;36982;51.474;7.228;2024-02-21T13:15:27;12.20;1.00
50969;DHT22;36982;51.474;7.228;2024-02-21T13:17:55;12.20;1.00
50969;DHT22;36982;51.474;7.228;2024-02-21T13:20:21;12.20;1.00
50969;DHT22;36982;51.474;7.228;2024-02-21T13:22:46;12.30;1.00
50969;DHT22;36982;51.474;7.228;2024-02-21T13:25:12;12.40;1.00
50969;DHT22;36982;51.474;7.228;2024-02-21T13:27:40;12.30;1.00
50969;DHT22;36982;51.474;7.228;2024-02-21T13:30:06;12.30;1.00
50969;DHT22;36982;51.474;7.228;2024-02-21T13:32:34;12.40;1.00
50969;DHT22;36982;51.474;7.228;2024-02-21T13:34:59;12.40;1.00
50969;DHT22;36982;51.474;7.228;2024-02-21T13:37:26;12.40;1.00
50969;DHT22;36982;51.474;7.228;2024-02-21T13:39:52;12.40;1.00
50969;DHT22;36982;51.474;7.228;2024-02-21T13:42:18;12.40;1.00
50969;DHT22;36982;51.474;7.228;2024-02-21T13:44:44;12.60;1.00
50969;DHT22;36982;51.474;7.228;2024-02-21T13:47:12;12.60;1.00
50969;DHT22;36982;51.474;7.228;2024-02-21T13:49:38;12.40;1.00
50969;DHT22;36982;51.474;7.228;2024-02-21T13:52:04;12.30;1.00
50969;DHT22;36982;51.474;7.228;2024-02-21T13:54:31;12.30;1.00
50969;DHT22;36982;51.474;7.228;2024-02-21T13:56:57;12.30;1.00
50969;DHT22;36982;51.474;7.228;2024-02-21T13:59:22;12.30;1.00
50969;DHT22;36982;51.474;7.228;2024-02-21T14:01:48;12.30;1.00
50969;DHT22;36982;51.474;7.228;2024-02-21T14:04:13;12.20;1.00
50969;DHT22;36982;51.474;7.228;2024-02-21T14:06:40;12.10;1.00
50969;DHT22;36982;51.474;7.228;2024-02-21T14:09:09;12.20;1.00
50969;DHT22;36982;51.474;7.228;2024-02-21T14:11:35;12.10;1.00
50969;DHT22;36982;51.474;7.228;2024-02-21T14:14:01;12.20;1.00
50969;DHT22;36982;51.474;7.228;2024-02-21T14:16:26;12.10;1.00
50969;DHT22;36982;51.474;7.228;2024-02-21T14:18:52;12.10;1.00
50969;DHT22;36982;51.474;7.228;2024-02-21T14:21:19;12.10;1.00
50969;DHT22;36982;51.474;7.228;2024-02-21T14:23:45;12.00;1.00
50969;DHT22;36982;51.474;7.228;2024-02-21T14:26:11;12.00;1.00
50969;DHT22;36982;51.474;7.228;2024-02-21T14:28:37;12.00;1.00
50969;DHT22;36982;51.474;7.228;2024-02-21T14:31:03;11.90;1.00
50969;DHT22;36982;51.474;7.228;2024-02-21T14:33:31;12.00;1.00
50969;DHT22;36982;51.474;7.228;2024-02-21T14:35:57;11.90;1.00
50969;DHT22;36982;51.474;7.228;2024-02-21T14:38:22;11.80;1.00
50969;DHT22;36982;51.474;7.228;2024-02-21T14:40:48;11.90;1.00
50969;DHT22;36982;51.474;7.228;2024-02-21T14:43:14;11.90;1.00
50969;DHT22;36982;51.474;7.228;2024-02-21T14:45:39;12.00;1.00
50969;DHT22;36982;51.474;7.228;2024-02-21T14:48:06;12.00;1.00
50969;DHT22;36982;51.474;7.228;2024-02-21T14:50:31;11.80;1.00
50969;DHT22;36982;51.474;7.228;2024-02-21T14:52:57;11.80;1.00
50969;DHT22;36982;51.474;7.228;2024-02-21T14:55:23;11.90;1.00
50969;DHT22;36982;51.474;7.228;2024-02-21T14:57:49;11.90;1.00
50969;DHT22;36982;51.474;7.228;2024-02-21T15:00:15;11.80;1.00
50969;DHT22;36982;51.474;7.228;2024-02-21T15:02:40;11.80;1.00
50969;DHT22;36982;51.474;7.228;2024-02-21T15:05:07;11.70;1.00
50969;DHT22;36982;51.474;7.228;2024-02-21T15:07:33;11.80;1.00
50969;DHT22;36982;51.474;7.228;2024-02-21T15:09:58;11.70;1.00
50969;DHT22;36982;51.474;7.228;2024-02-21T15:12:24;11.80;1.00
50969;DHT22;36982;51.474;7.228;2024-02-21T15:14:50;11.80;1.00
50969;DHT22;36982;51.474;7.228;2024-02-21T15:17:17;11.70;1.00
50969;DHT22;36982;51.474;7.228;2024-02-21T15:19:43;11.70;1.00
50969;DHT22;36982;51.474;7.228;2024-02-21T15:22:13;11.50;1.00
50969;DHT22;36982;51.474;7.228;2024-02-21T15:24:42;11.60;1.00
50969;DHT22;36982;51.474;7.228;2024-02-21T15:27:08;11.50;1.00
50969;DHT22;36982;51.474;7.228;2024-02-21T15:29:34;11.50;1.00
50969;DHT22;36982;51.474;7.228;2024-02-21T15:32:02;11.50;1.00
50969;DHT22;36982;51.474;7.228;2024-02-21T15:34:27;11.50;1.00
50969;DHT22;36982;51.474;7.228;2024-02-21T15:36:53;11.50;1.00
50969;DHT22;36982;51.474;7.228;2024-02-21T15:39:19;11.40;1.00
50969;DHT22;36982;51.474;7.228;2024-02-21T15:41:44;11.40;1.00
50969;DHT22;36982;51.474;7.228;2024-02-21T15:44:10;11.40;1.00